Christian Radich — LJLM — position and weather

sailwx.info

Track history (hours):
 
Tides and Currents Weather Stations Pressure Air Temp Water Temp Dewpoint Dewpoint Depression Visibility Wind Speed Wind Dir Waves Ship Positions

Christian Radich (Norway)

Last reported at 2019-Aug-24 07:00 UTC. Time now 2019-Aug-24 07:03 UTC.
Position N 59°54' E 010°45'.

Length 63 m; draft 4.9 m.

MMSI: 258373000.

Date/timePositionNaut miles runAvg speedWind from/ knotsBaromVisibWave heightAir tempDewpointWater temp
2019-Aug-24 07:00N 59°54' E 010°45'0 0.0
2019-Aug-24 06:30N 59°54' E 010°45'0 0.0
2019-Aug-24 06:00N 59°54' E 010°45'0 0.0
2019-Aug-24 05:28N 59°54' E 010°45'0 0.0
2019-Aug-24 04:58N 59°54' E 010°45'0 0.0
2019-Aug-24 04:28N 59°54' E 010°45'0 0.0
2019-Aug-24 03:59N 59°54' E 010°45'0 0.0
2019-Aug-24 03:29N 59°54' E 010°45'0 0.0
2019-Aug-24 02:59N 59°54' E 010°45'0 0.0
2019-Aug-24 02:30N 59°54' E 010°45'0 0.0
2019-Aug-24 02:00N 59°54' E 010°45'0 0.0
2019-Aug-24 01:30N 59°54' E 010°45'0 0.0
2019-Aug-24 00:58N 59°54' E 010°45'0 0.0
2019-Aug-24 00:28N 59°54' E 010°45'0 0.0
2019-Aug-23 23:58N 59°54' E 010°45'0 0.0
2019-Aug-23 23:29N 59°54' E 010°45'0 0.0
2019-Aug-23 22:59N 59°54' E 010°45'0 0.0
2019-Aug-23 22:29N 59°54' E 010°45'0 0.0
2019-Aug-23 22:00N 59°54' E 010°45'0 0.0
2019-Aug-23 21:30N 59°54' E 010°45'0 0.0
2019-Aug-23 21:00N 59°54' E 010°45'0 0.0
2019-Aug-23 20:28N 59°54' E 010°45'0 0.0
2019-Aug-23 19:58N 59°54' E 010°45'0 0.0
2019-Aug-23 19:28N 59°54' E 010°45'0 0.0
2019-Aug-23 18:59N 59°54' E 010°45'0 0.0
2019-Aug-23 18:29N 59°54' E 010°45'0 0.0
2019-Aug-23 17:59N 59°54' E 010°45'0 0.0
2019-Aug-23 17:30N 59°54' E 010°45'0 0.0
2019-Aug-23 17:00N 59°54' E 010°45'0 0.0
2019-Aug-23 16:30N 59°54' E 010°45'0 0.0
2019-Aug-23 15:58N 59°54' E 010°45'0 0.0
2019-Aug-23 15:28N 59°54' E 010°45'0 0.0
2019-Aug-23 14:58N 59°54' E 010°45'0 0.0
2019-Aug-23 14:29N 59°54' E 010°45'0 0.0
2019-Aug-23 13:59N 59°54' E 010°45'0 0.0
2019-Aug-23 13:29N 59°54' E 010°45'0 0.0
2019-Aug-23 13:00N 59°54' E 010°45'0 0.0
2019-Aug-23 12:30N 59°54' E 010°45'0 0.0
2019-Aug-23 12:00N 59°54' E 010°45'0 0.0
2019-Aug-23 11:28N 59°54' E 010°45'0 0.0
2019-Aug-23 10:58N 59°54' E 010°45'0 0.0
2019-Aug-23 10:28N 59°54' E 010°45'0 0.0
2019-Aug-23 09:59N 59°54' E 010°45'0 0.0
2019-Aug-23 09:29N 59°54' E 010°45'0 0.0
2019-Aug-23 08:59N 59°54' E 010°45'0 0.0
2019-Aug-23 08:30N 59°54' E 010°45'0 0.0
2019-Aug-23 08:00N 59°54' E 010°45'0 0.0
2019-Aug-23 07:30N 59°54' E 010°45'0 0.0
2019-Aug-23 07:00N 59°54' E 010°45'2 4.6
2019-Aug-23 06:30N 59°53' E 010°41'1 2.6
2019-Aug-23 06:00N 59°53' E 010°39'1 2.5
2019-Aug-23 05:30N 59°51' E 010°38'1 1.9
2019-Aug-23 05:01N 59°51' E 010°38'1 1.9
2019-Aug-23 04:30N 59°50' E 010°37'1 1.9
2019-Aug-23 04:00N 59°49' E 010°35'1 2.3
2019-Aug-23 03:30N 59°48' E 010°36'1 2.1
2019-Aug-23 03:00N 59°47' E 010°34'1 2.2
2019-Aug-23 02:30N 59°46' E 010°34'1 1.6
2019-Aug-23 01:59N 59°45' E 010°35'1 2.8
2019-Aug-23 01:31N 59°44' E 010°35'1 2.5
2019-Aug-23 01:00N 59°43' E 010°35'1 3.0
2019-Aug-23 00:30N 59°41' E 010°36'1 2.8
2019-Aug-23 00:00N 59°40' E 010°37'2 3.2
2019-Aug-22 23:31N 59°38' E 010°38'1 2.8
2019-Aug-22 23:00N 59°37' E 010°38'2 3.5
2019-Aug-22 22:31N 59°35' E 010°38'2 3.7
2019-Aug-22 22:01N 59°33' E 010°38'2 3.9
2019-Aug-22 21:30N 59°32' E 010°36'2 3.9
2019-Aug-22 21:01N 59°30' E 010°34'2 3.5
2019-Aug-22 20:30N 59°29' E 010°32'2 3.4
2019-Aug-22 20:00N 59°27' E 010°30'1 3.0
2019-Aug-22 19:31N 59°26' E 010°28'0 0.1
2019-Aug-22 18:59N 59°26' E 010°28'0 0.0
2019-Aug-22 18:30N 59°26' E 010°28'1 2.7
2019-Aug-22 18:00N 59°27' E 010°31'4 7.5
2019-Aug-22 17:31N 59°24' E 010°35'4 7.4
2019-Aug-22 17:00N 59°20' E 010°37'4 8.4
2019-Aug-22 16:30N 59°16' E 010°39'4 8.9
2019-Aug-22 16:01N 59°12' E 010°40'5 9.0
2019-Aug-22 15:31N 59°07' E 010°40'4 8.9
2019-Aug-22 15:00N 59°03' E 010°39'4 8.4
2019-Aug-22 14:30N 59°00' E 010°33'4 8.2
2019-Aug-22 14:00N 58°57' E 010°27'4 8.3
2019-Aug-22 13:30N 58°54' E 010°22'4 7.9
2019-Aug-22 13:00N 58°51' E 010°17'4 7.2
2019-Aug-22 12:30N 58°48' E 010°13'4 7.3
2019-Aug-22 12:00N 58°45' E 010°08'4 7.1
2019-Aug-22 11:30N 58°43' E 010°04'3 6.8
2019-Aug-22 11:00N 58°40' E 009°59'2 4.5
2019-Aug-22 10:29N 58°40' E 009°55'3 5.5
2019-Aug-22 10:00N 58°41' E 009°50'3 5.3
2019-Aug-22 09:30N 58°42' E 009°46'2 4.8
2019-Aug-22 09:00N 58°44' E 009°42'2 4.5
2019-Aug-22 08:30N 58°45' E 009°39'2 4.8
2019-Aug-22 08:00N 58°47' E 009°35'2 3.9
2019-Aug-22 07:30N 58°48' E 009°32'2 4.1
2019-Aug-22 06:59N 58°49' E 009°35'3 5.3
2019-Aug-22 06:30N 58°51' E 009°39'3 5.4
2019-Aug-22 06:00N 58°52' E 009°44'3 5.7
2019-Aug-22 05:30N 58°52' E 009°49'3 5.6
2019-Aug-22 05:00N 58°53' E 009°54'3 6.6
2019-Aug-22 04:30N 58°54' E 010°00'3 6.6
2019-Aug-22 04:00N 58°55' E 010°07'3 6.2
2019-Aug-22 03:30N 58°56' E 010°12'3 5.9
2019-Aug-22 03:00N 58°57' E 010°18'3 5.1
2019-Aug-22 02:30N 58°57' E 010°23'2 4.4
2019-Aug-22 02:00N 58°58' E 010°27'2 4.0
2019-Aug-22 01:30N 58°59' E 010°30'2 3.2
2019-Aug-22 01:00N 58°60' E 010°33'2 3.2
2019-Aug-22 00:30N 59°01' E 010°34'2 3.6
2019-Aug-22 00:00N 59°03' E 010°36'2 3.4
2019-Aug-21 23:30N 59°04' E 010°37'2 3.9
2019-Aug-21 23:00N 59°06' E 010°38'2 4.2
2019-Aug-21 22:30N 59°08' E 010°39'2 4.9
2019-Aug-21 22:00N 59°11' E 010°38'3 5.0
2019-Aug-21 21:30N 59°13' E 010°37'3 5.5
2019-Aug-21 21:00N 59°16' E 010°36'3 5.7
2019-Aug-21 20:30N 59°19' E 010°35'2 5.0
2019-Aug-21 20:00N 59°21' E 010°34'3 5.3
2019-Aug-21 19:30N 59°24' E 010°33'3 5.3
2019-Aug-21 19:00N 59°26' E 010°33'3 5.1
2019-Aug-21 18:30N 59°29' E 010°33'3 5.1
2019-Aug-21 18:00N 59°31' E 010°35'2 4.8
2019-Aug-21 17:30N 59°33' E 010°37'2 4.4
2019-Aug-21 17:00N 59°36' E 010°38'2 4.7
2019-Aug-21 16:30N 59°38' E 010°37'2 4.6
2019-Aug-21 16:00N 59°40' E 010°37'2 4.4
2019-Aug-21 15:29N 59°42' E 010°35'2 4.8
2019-Aug-21 15:00N 59°44' E 010°33'2 5.0
2019-Aug-21 14:30N 59°47' E 010°33'3 5.1
2019-Aug-21 14:00N 59°49' E 010°34'3 5.8
2019-Aug-21 13:30N 59°52' E 010°37'3 5.8
2019-Aug-21 13:00N 59°54' E 010°42'2 3.7
2019-Aug-21 12:30N 59°54' E 010°45'0 0.0
2019-Aug-21 12:00N 59°54' E 010°45'0 0.0
2019-Aug-21 11:30N 59°54' E 010°45'0 0.0
2019-Aug-21 10:58N 59°54' E 010°45'0 0.0
2019-Aug-21 10:28N 59°54' E 010°45'0 0.0
2019-Aug-21 09:58N 59°54' E 010°45'0 0.0
2019-Aug-21 09:29N 59°54' E 010°45'0 0.0
2019-Aug-21 09:00N 59°54' E 010°45'0 0.0
2019-Aug-21 08:30N 59°54' E 010°45'0 0.0
2019-Aug-21 08:00N 59°54' E 010°45'0 0.0
2019-Aug-21 07:29N 59°54' E 010°45'0 0.0
2019-Aug-21 07:00N 59°54' E 010°45'0 0.0
2019-Aug-21 06:30N 59°54' E 010°45'0 0.0
2019-Aug-21 06:00N 59°54' E 010°45'0 0.0
2019-Aug-21 05:30N 59°54' E 010°45'0 0.0
2019-Aug-21 05:00N 59°54' E 010°45'0 0.0
2019-Aug-21 04:30N 59°54' E 010°45'0 0.0
2019-Aug-21 04:00N 59°54' E 010°45'0 0.0
2019-Aug-21 03:30N 59°54' E 010°45'0 0.0
2019-Aug-21 03:00N 59°54' E 010°45'0 0.0
2019-Aug-21 02:30N 59°54' E 010°45'0 0.0
2019-Aug-21 02:00N 59°54' E 010°45'0 0.0
2019-Aug-21 01:30N 59°54' E 010°45'0 0.0
2019-Aug-21 01:00N 59°54' E 010°45'0 0.0
2019-Aug-21 00:30N 59°54' E 010°45'0 0.0
2019-Aug-21 00:00N 59°54' E 010°45'0 0.0
2019-Aug-20 23:30N 59°54' E 010°45'0 0.0
2019-Aug-20 23:00N 59°54' E 010°45'0 0.0
2019-Aug-20 22:30N 59°54' E 010°45'0 0.0
2019-Aug-20 22:00N 59°54' E 010°45'0 0.0
2019-Aug-20 21:30N 59°54' E 010°45'0 0.0
2019-Aug-20 21:00N 59°54' E 010°45'0 0.0
2019-Aug-20 20:30N 59°54' E 010°45'0 0.0
2019-Aug-20 20:00N 59°54' E 010°45'0 0.0
2019-Aug-20 19:30N 59°54' E 010°45'0 0.0
2019-Aug-20 19:00N 59°54' E 010°45'0 0.0
2019-Aug-20 18:30N 59°54' E 010°45'0 0.0
2019-Aug-20 18:00N 59°54' E 010°45'0 0.0
2019-Aug-20 17:30N 59°54' E 010°45'0 0.0
2019-Aug-20 17:00N 59°54' E 010°45'0 0.0
2019-Aug-20 16:30N 59°54' E 010°45'0 0.0
2019-Aug-20 16:00N 59°54' E 010°45'0 0.0
2019-Aug-20 15:30N 59°54' E 010°45'0 0.0
2019-Aug-20 15:00N 59°54' E 010°45'0 0.0
2019-Aug-20 14:28N 59°54' E 010°45'0 0.0
2019-Aug-20 13:59N 59°54' E 010°45'0 0.0
2019-Aug-20 13:29N 59°54' E 010°45'0 0.0
2019-Aug-20 12:59N 59°54' E 010°45'0 0.0
2019-Aug-20 12:30N 59°54' E 010°45'0 0.0
2019-Aug-20 12:00N 59°54' E 010°45'0 0.0
2019-Aug-20 11:30N 59°54' E 010°45'0 0.0
2019-Aug-20 11:00N 59°54' E 010°45'0 0.0
2019-Aug-20 10:28N 59°54' E 010°45'0 0.0
2019-Aug-20 09:58N 59°54' E 010°45'0 0.0
2019-Aug-20 09:29N 59°54' E 010°45'0 0.0
2019-Aug-20 08:59N 59°54' E 010°45'0 0.0
2019-Aug-20 08:29N 59°54' E 010°45'0 0.0
2019-Aug-20 07:59N 59°54' E 010°45'0 0.0
2019-Aug-20 07:30N 59°54' E 010°45'0 0.0
2019-Aug-20 07:00N 59°54' E 010°45'0 0.0
2019-Aug-20 06:30N 59°54' E 010°45'0 0.0
2019-Aug-20 05:58N 59°54' E 010°45'0 0.0
2019-Aug-20 05:28N 59°54' E 010°45'0 0.0
2019-Aug-20 04:58N 59°54' E 010°45'0 0.0
2019-Aug-20 04:29N 59°54' E 010°45'0 0.0
2019-Aug-20 03:59N 59°54' E 010°45'0 0.0
2019-Aug-20 03:29N 59°54' E 010°45'0 0.0
2019-Aug-20 03:00N 59°54' E 010°45'0 0.0
2019-Aug-20 02:30N 59°54' E 010°45'0 0.0
2019-Aug-20 02:00N 59°54' E 010°45'0 0.0
2019-Aug-20 01:28N 59°54' E 010°45'0 0.0
2019-Aug-20 00:58N 59°54' E 010°45'0 0.0
2019-Aug-20 00:28N 59°54' E 010°45'0 0.0
2019-Aug-19 23:59N 59°54' E 010°45'0 0.0
2019-Aug-19 23:29N 59°54' E 010°45'0 0.0
2019-Aug-19 22:59N 59°54' E 010°45'0 0.0
2019-Aug-19 22:30N 59°54' E 010°45'0 0.0
2019-Aug-19 22:00N 59°54' E 010°45'0 0.0
2019-Aug-19 21:30N 59°54' E 010°45'0 0.0
2019-Aug-19 20:58N 59°54' E 010°45'0 0.0
2019-Aug-19 20:28N 59°54' E 010°45'0 0.0
2019-Aug-19 19:58N 59°54' E 010°45'0 0.0
2019-Aug-19 19:29N 59°54' E 010°45'0 0.0
2019-Aug-19 18:59N 59°54' E 010°45'0 0.0
2019-Aug-19 18:29N 59°54' E 010°45'0 0.0
2019-Aug-19 18:00N 59°54' E 010°45'0 0.0
2019-Aug-19 17:30N 59°54' E 010°45'0 0.0
2019-Aug-19 17:00N 59°54' E 010°45'0 0.2
2019-Aug-19 16:30N 59°54' E 010°45'2 4.6
2019-Aug-19 15:59N 59°53' E 010°41'2 4.8
2019-Aug-19 15:30N 59°51' E 010°42'1 1.2
2019-Aug-19 15:00N 59°51' E 010°42'1 2.6
2019-Aug-19 14:30N 59°53' E 010°40'1 2.8
2019-Aug-19 14:00N 59°52' E 010°38'2 4.0
2019-Aug-19 13:30N 59°50' E 010°36'2 4.4
2019-Aug-19 13:00N 59°48' E 010°35'3 5.2
2019-Aug-19 12:30N 59°45' E 010°35'3 5.1
2019-Aug-19 12:00N 59°43' E 010°35'3 5.9
2019-Aug-19 11:30N 59°40' E 010°37'3 6.8
2019-Aug-19 11:00N 59°37' E 010°38'3 6.7
2019-Aug-19 10:30N 59°33' E 010°38'3 6.4
2019-Aug-19 10:00N 59°30' E 010°36'3 6.0
2019-Aug-19 09:30N 59°27' E 010°34'3 5.1
2019-Aug-19 09:00N 59°25' E 010°34'3 5.6
2019-Aug-19 08:30N 59°22' E 010°36'3 6.1
2019-Aug-19 08:00N 59°19' E 010°37'4 7.2
2019-Aug-19 07:30N 59°16' E 010°37'4 8.9
2019-Aug-19 07:00N 59°11' E 010°39'4 7.9
2019-Aug-19 06:30N 59°07' E 010°40'4 8.0
2019-Aug-19 06:00N 59°03' E 010°42'4 8.2
2019-Aug-19 05:30N 58°59' E 010°42'4 7.4
2019-Aug-19 05:00N 58°55' E 010°43'4 7.1
2019-Aug-19 04:30N 58°52' E 010°43'4 7.2
2019-Aug-19 04:00N 58°48' E 010°44'3 6.8
2019-Aug-19 03:30N 58°45' E 010°44'4 6.9
2019-Aug-19 03:00N 58°41' E 010°45'4 7.2
2019-Aug-19 02:30N 58°38' E 010°46'3 6.8
2019-Aug-19 02:00N 58°35' E 010°48'3 6.6
2019-Aug-19 01:30N 58°31' E 010°49'3 6.4
2019-Aug-19 01:00N 58°28' E 010°50'3 6.7
2019-Aug-19 00:30N 58°25' E 010°51'3 6.4
2019-Aug-19 00:00N 58°22' E 010°51'3 6.3
2019-Aug-18 23:29N 58°19' E 010°52'3 5.6
2019-Aug-18 23:00N 58°16' E 010°52'3 5.1
2019-Aug-18 22:30N 58°13' E 010°51'2 4.0
2019-Aug-18 21:59N 58°11' E 010°50'2 4.3
2019-Aug-18 21:29N 58°09' E 010°50'2 3.8
2019-Aug-18 21:00N 58°07' E 010°49'2 3.4
2019-Aug-18 20:30N 58°06' E 010°49'2 3.3
2019-Aug-18 20:00N 58°04' E 010°48'2 3.5
2019-Aug-18 19:30N 58°02' E 010°47'2 3.6
2019-Aug-18 18:59N 58°01' E 010°47'2 3.2
2019-Aug-18 18:30N 57°59' E 010°47'1 2.8
2019-Aug-18 18:00N 57°58' E 010°48'2 3.5
2019-Aug-18 17:30N 57°56' E 010°49'2 4.4
2019-Aug-18 17:00N 57°54' E 010°49'2 4.4
2019-Aug-18 16:30N 57°52' E 010°49'2 4.9
2019-Aug-18 16:00N 57°49' E 010°48'3 5.1
2019-Aug-18 15:30N 57°47' E 010°47'1 2.9
2019-Aug-18 15:00N 57°45' E 010°46'3 5.9
2019-Aug-18 14:30N 57°43' E 010°42'4 7.1
2019-Aug-18 14:00N 57°43' E 010°36'0 0.4
2019-Aug-18 13:26N 57°43' E 010°35'0 0.0
2019-Aug-18 13:00N 57°43' E 010°35'0 0.0
2019-Aug-18 12:30N 57°43' E 010°35'0 0.0
2019-Aug-18 11:57N 57°43' E 010°35'0 0.0
2019-Aug-18 11:22N 57°43' E 010°35'0 0.0
2019-Aug-18 10:55N 57°43' E 010°35'0 0.0
2019-Aug-18 10:28N 57°43' E 010°35'0 0.0
2019-Aug-18 09:59N 57°43' E 010°35'0 0.0
2019-Aug-18 09:17N 57°43' E 010°35'0 0.0
2019-Aug-18 08:59N 57°43' E 010°35'0 0.0
2019-Aug-18 06:58N 57°43' E 010°35'0 0.0
2019-Aug-18 06:28N 57°43' E 010°35'0 0.0
2019-Aug-18 05:58N 57°43' E 010°35'0 0.0
2019-Aug-18 05:29N 57°43' E 010°35'0 0.0
2019-Aug-18 04:47N 57°43' E 010°35'0 0.0
2019-Aug-18 04:26N 57°43' E 010°35'0 0.0
2019-Aug-18 04:00N 57°43' E 010°35'0 0.0
2019-Aug-18 03:27N 57°43' E 010°35'0 0.0
2019-Aug-18 02:57N 57°43' E 010°35'0 0.0
2019-Aug-18 02:31N 57°43' E 010°35'0 0.0
2019-Aug-18 01:58N 57°43' E 010°35'0 0.0
2019-Aug-18 01:28N 57°43' E 010°35'0 0.0
2019-Aug-18 00:59N 57°43' E 010°35'0 0.0
2019-Aug-18 00:29N 57°43' E 010°35'0 0.0
2019-Aug-17 23:59N 57°43' E 010°35'0 0.0
2019-Aug-17 23:24N 57°43' E 010°35'0 0.0
2019-Aug-17 23:00N 57°43' E 010°35'0 0.0
2019-Aug-17 22:27N 57°43' E 010°35'0 0.0
2019-Aug-17 22:01N 57°43' E 010°35'0 0.0
2019-Aug-17 21:25N 57°43' E 010°35'0 0.0
2019-Aug-17 20:58N 57°43' E 010°35'0 0.0
2019-Aug-17 20:29N 57°43' E 010°35'0 0.0
2019-Aug-17 19:59N 57°43' E 010°35'0 0.0
2019-Aug-17 19:29N 57°43' E 010°35'0 0.0
2019-Aug-17 18:59N 57°43' E 010°35'0 0.0
2019-Aug-17 18:30N 57°43' E 010°35'0 0.0
2019-Aug-17 17:30N 57°43' E 010°35'0 0.0
2019-Aug-17 16:58N 57°43' E 010°35'0 0.0
2019-Aug-17 16:28N 57°43' E 010°35'0 0.0
2019-Aug-17 15:55N 57°43' E 010°35'0 0.0
2019-Aug-17 15:30N 57°43' E 010°35'1 1.5
2019-Aug-17 15:00N 57°43' E 010°37'0 0.9
2019-Aug-17 14:30N 57°43' E 010°37'1 1.3
2019-Aug-17 14:00N 57°43' E 010°39'2 3.2
2019-Aug-17 13:30N 57°43' E 010°41'2 4.6
2019-Aug-17 13:00N 57°44' E 010°45'2 3.1
2019-Aug-17 12:30N 57°45' E 010°47'2 3.1
2019-Aug-17 12:00N 57°46' E 010°50'2 3.3
2019-Aug-17 11:30N 57°47' E 010°52'2 3.3
2019-Aug-17 11:00N 57°48' E 010°55'2 3.6
2019-Aug-17 10:30N 57°48' E 010°58'2 4.0
2019-Aug-17 10:00N 57°49' E 011°02'2 4.0
2019-Aug-17 09:30N 57°50' E 011°05'2 3.2
2019-Aug-17 09:00N 57°51' E 011°07'2 3.7
2019-Aug-17 08:30N 57°52' E 011°04'2 4.8
2019-Aug-17 08:00N 57°53' E 011°00'2 4.7
2019-Aug-17 07:30N 57°54' E 010°56'2 4.7
2019-Aug-17 07:00N 57°55' E 010°52'2 4.8
2019-Aug-17 06:30N 57°56' E 010°48'2 5.0
2019-Aug-17 06:00N 57°57' E 010°44'3 5.6
2019-Aug-17 05:30N 57°58' E 010°39'3 6.5
2019-Aug-17 04:59N 57°59' E 010°33'4 7.5
2019-Aug-17 04:30N 57°60' E 010°26'4 7.9
2019-Aug-17 04:00N 58°01' E 010°19'4 7.9
2019-Aug-17 03:30N 58°02' E 010°12'4 7.5
2019-Aug-17 03:00N 58°03' E 010°05'4 7.3
2019-Aug-17 02:30N 58°04' E 009°58'4 7.0
2019-Aug-17 01:59N 58°05' E 009°52'3 6.8
2019-Aug-17 01:30N 58°06' E 009°46'3 6.7
2019-Aug-17 01:00N 58°07' E 009°40'3 6.6
2019-Aug-17 00:30N 58°09' E 009°35'4 6.9
2019-Aug-17 00:00N 58°11' E 009°29'3 6.7
2019-Aug-16 23:30N 58°13' E 009°24'4 7.0
2019-Aug-16 23:00N 58°14' E 009°18'4 7.3
2019-Aug-16 22:30N 58°16' E 009°12'4 7.6
2019-Aug-16 21:59N 58°18' E 009°06'4 7.4
2019-Aug-16 21:30N 58°20' E 009°00'4 7.7
2019-Aug-16 21:00N 58°22' E 008°54'4 7.9
2019-Aug-16 20:30N 58°25' E 008°48'2 4.1
2019-Aug-16 20:00N 58°27' E 008°47'1 1.8
2019-Aug-16 19:30N 58°27' E 008°46'0 0.0
2019-Aug-16 18:58N 58°27' E 008°46'0 0.0
2019-Aug-16 18:28N 58°27' E 008°46'0 0.0
2019-Aug-16 17:59N 58°27' E 008°46'0 0.0
2019-Aug-16 17:29N 58°27' E 008°46'0 0.0
2019-Aug-16 16:59N 58°27' E 008°46'0 0.0
2019-Aug-16 16:30N 58°27' E 008°46'0 0.0
2019-Aug-16 16:00N 58°27' E 008°46'0 0.0
2019-Aug-16 15:30N 58°27' E 008°46'0 0.0
2019-Aug-16 14:58N 58°27' E 008°46'0 0.0
2019-Aug-16 14:28N 58°27' E 008°46'0 0.0
2019-Aug-16 13:59N 58°27' E 008°46'0 0.0
2019-Aug-16 13:29N 58°27' E 008°46'0 0.0
2019-Aug-16 12:59N 58°27' E 008°46'0 0.0
2019-Aug-16 12:30N 58°27' E 008°46'0 0.0
2019-Aug-16 12:00N 58°27' E 008°46'0 0.0
2019-Aug-16 11:30N 58°27' E 008°46'0 0.0
2019-Aug-16 10:58N 58°27' E 008°46'0 0.0
2019-Aug-16 10:28N 58°27' E 008°46'0 0.0
2019-Aug-16 09:58N 58°27' E 008°46'0 0.0
2019-Aug-16 09:29N 58°27' E 008°46'0 0.0
2019-Aug-16 08:59N 58°27' E 008°46'0 0.0
2019-Aug-16 08:29N 58°27' E 008°46'0 0.0
2019-Aug-16 08:00N 58°27' E 008°46'0 0.0
2019-Aug-16 07:30N 58°27' E 008°46'0 0.0
2019-Aug-16 07:00N 58°27' E 008°46'0 0.0
2019-Aug-16 06:28N 58°27' E 008°46'0 0.0
2019-Aug-16 05:58N 58°27' E 008°46'0 0.0
2019-Aug-16 05:28N 58°27' E 008°46'0 0.0
2019-Aug-16 04:59N 58°27' E 008°46'0 0.0
2019-Aug-16 04:29N 58°27' E 008°46'0 0.0
2019-Aug-16 03:59N 58°27' E 008°46'0 0.0
2019-Aug-16 03:30N 58°27' E 008°46'0 0.0
2019-Aug-16 03:00N 58°27' E 008°46'0 0.0
2019-Aug-16 02:30N 58°27' E 008°46'0 0.0
2019-Aug-16 01:58N 58°27' E 008°46'0 0.0
2019-Aug-16 01:28N 58°27' E 008°46'0 0.0
2019-Aug-16 00:58N 58°27' E 008°46'0 0.0
2019-Aug-16 00:29N 58°27' E 008°46'0 0.0
2019-Aug-15 23:59N 58°27' E 008°46'0 0.0
2019-Aug-15 23:29N 58°27' E 008°46'0 0.0
2019-Aug-15 23:00N 58°27' E 008°46'0 0.0
2019-Aug-15 22:30N 58°27' E 008°46'0 0.0
2019-Aug-15 22:00N 58°27' E 008°46'0 0.0
2019-Aug-15 21:28N 58°27' E 008°46'0 0.0
2019-Aug-15 20:58N 58°27' E 008°46'0 0.0
2019-Aug-15 20:28N 58°27' E 008°46'0 0.0
2019-Aug-15 19:59N 58°27' E 008°46'0 0.0
2019-Aug-15 19:29N 58°27' E 008°46'0 0.0
2019-Aug-15 18:59N 58°27' E 008°46'0 0.0
2019-Aug-15 18:30N 58°27' E 008°46'0 0.0
2019-Aug-15 18:00N 58°27' E 008°46'0 0.0
2019-Aug-15 17:30N 58°27' E 008°46'0 0.0
2019-Aug-15 16:58N 58°27' E 008°46'0 0.0
2019-Aug-15 16:28N 58°27' E 008°46'0 0.0
2019-Aug-15 15:58N 58°27' E 008°46'0 0.0
2019-Aug-15 15:29N 58°27' E 008°46'0 0.0
2019-Aug-15 14:59N 58°27' E 008°46'0 0.0
2019-Aug-15 14:29N 58°27' E 008°46'0 0.0
2019-Aug-15 14:00N 58°27' E 008°46'0 0.0
2019-Aug-15 13:30N 58°27' E 008°46'0 0.0
2019-Aug-15 13:00N 58°27' E 008°46'0 0.0
2019-Aug-15 12:28N 58°27' E 008°46'0 0.0
2019-Aug-15 11:58N 58°27' E 008°46'0 0.0
2019-Aug-15 11:28N 58°27' E 008°46'0 0.0
2019-Aug-15 10:59N 58°27' E 008°46'0 0.0
2019-Aug-15 10:29N 58°27' E 008°46'0 0.0
2019-Aug-15 09:59N 58°27' E 008°46'0 0.0
2019-Aug-15 09:30N 58°27' E 008°46'0 0.0
2019-Aug-15 08:57N 58°27' E 008°46'0 0.0
2019-Aug-15 08:30N 58°27' E 008°46'0 0.0
2019-Aug-15 07:58N 58°27' E 008°46'0 0.0
2019-Aug-15 07:28N 58°27' E 008°46'0 0.0
2019-Aug-15 06:58N 58°27' E 008°46'0 0.0
2019-Aug-15 06:29N 58°27' E 008°46'0 0.0
2019-Aug-15 05:59N 58°27' E 008°46'0 0.0
2019-Aug-15 05:29N 58°27' E 008°46'0 0.0
2019-Aug-15 05:00N 58°27' E 008°46'0 0.0
2019-Aug-15 04:30N 58°27' E 008°46'0 0.0
2019-Aug-15 04:00N 58°27' E 008°46'0 0.0
2019-Aug-15 03:28N 58°27' E 008°46'0 0.0
2019-Aug-15 02:58N 58°27' E 008°46'0 0.0
2019-Aug-15 02:28N 58°27' E 008°46'0 0.0
2019-Aug-15 01:59N 58°27' E 008°46'0 0.0
2019-Aug-15 01:29N 58°27' E 008°46'0 0.0
2019-Aug-15 00:59N 58°27' E 008°46'0 0.0
2019-Aug-15 00:30N 58°27' E 008°46'0 0.0
2019-Aug-15 00:00N 58°27' E 008°46'0 0.0
2019-Aug-14 23:30N 58°27' E 008°46'0 0.0
2019-Aug-14 22:58N 58°27' E 008°46'0 0.0
2019-Aug-14 22:28N 58°27' E 008°46'0 0.0
2019-Aug-14 21:58N 58°27' E 008°46'0 0.0
2019-Aug-14 21:29N 58°27' E 008°46'0 0.0
2019-Aug-14 20:59N 58°27' E 008°46'0 0.0
2019-Aug-14 20:29N 58°27' E 008°46'0 0.0
2019-Aug-14 20:00N 58°27' E 008°46'0 0.0
2019-Aug-14 19:30N 58°27' E 008°46'0 0.0
2019-Aug-14 19:00N 58°27' E 008°46'0 0.0
2019-Aug-14 18:28N 58°27' E 008°46'0 0.0
2019-Aug-14 17:58N 58°27' E 008°46'0 0.0
2019-Aug-14 17:28N 58°27' E 008°46'0 0.0
2019-Aug-14 16:59N 58°27' E 008°46'0 0.0
2019-Aug-14 16:29N 58°27' E 008°46'0 0.0
2019-Aug-14 16:00N 58°27' E 008°46'0 0.0
2019-Aug-14 15:30N 58°27' E 008°46'0 0.0
2019-Aug-14 15:00N 58°27' E 008°46'0 0.0
2019-Aug-14 14:30N 58°27' E 008°46'0 0.0
2019-Aug-14 13:58N 58°27' E 008°46'0 0.0
2019-Aug-14 13:28N 58°27' E 008°46'0 0.0
2019-Aug-14 12:59N 58°27' E 008°46'0 0.0
2019-Aug-14 12:29N 58°27' E 008°46'0 0.0
2019-Aug-14 11:59N 58°27' E 008°46'0 0.0
2019-Aug-14 11:30N 58°27' E 008°46'0 0.0
2019-Aug-14 11:00N 58°27' E 008°46'0 0.0
2019-Aug-14 10:30N 58°27' E 008°46'0 0.0
2019-Aug-14 09:58N 58°27' E 008°46'0 0.0
2019-Aug-14 09:28N 58°27' E 008°46'0 0.0
2019-Aug-14 08:58N 58°27' E 008°46'0 0.0
2019-Aug-14 08:29N 58°27' E 008°46'0 0.0
2019-Aug-14 07:59N 58°27' E 008°46'0 0.0
2019-Aug-14 07:29N 58°27' E 008°46'  
Track history (hours):
 
Tides and Currents Weather Stations Pressure Air Temp Water Temp Dewpoint Dewpoint Depression Visibility Wind Speed Wind Dir Waves Ship Positions

Christian Radich (Norway)

Last reported at 2019-Aug-24 07:00 UTC. Time now 2019-Aug-24 07:03 UTC.
Position N 59°54' E 010°45'.

Length 63 m; draft 4.9 m.

MMSI: 258373000.

Date/timePositionNaut miles runAvg speedWind from/ knotsBaromVisibWave heightAir tempDewpointWater temp
2019-Aug-24 07:00N 59°54' E 010°45'0 0.0
2019-Aug-24 06:30N 59°54' E 010°45'0 0.0
2019-Aug-24 06:00N 59°54' E 010°45'0 0.0
2019-Aug-24 05:28N 59°54' E 010°45'0 0.0
2019-Aug-24 04:58N 59°54' E 010°45'0 0.0
2019-Aug-24 04:28N 59°54' E 010°45'0 0.0
2019-Aug-24 03:59N 59°54' E 010°45'0 0.0
2019-Aug-24 03:29N 59°54' E 010°45'0 0.0
2019-Aug-24 02:59N 59°54' E 010°45'0 0.0
2019-Aug-24 02:30N 59°54' E 010°45'0 0.0
2019-Aug-24 02:00N 59°54' E 010°45'0 0.0
2019-Aug-24 01:30N 59°54' E 010°45'0 0.0
2019-Aug-24 00:58N 59°54' E 010°45'0 0.0
2019-Aug-24 00:28N 59°54' E 010°45'0 0.0
2019-Aug-23 23:58N 59°54' E 010°45'0 0.0
2019-Aug-23 23:29N 59°54' E 010°45'0 0.0
2019-Aug-23 22:59N 59°54' E 010°45'0 0.0
2019-Aug-23 22:29N 59°54' E 010°45'0 0.0
2019-Aug-23 22:00N 59°54' E 010°45'0 0.0
2019-Aug-23 21:30N 59°54' E 010°45'0 0.0
2019-Aug-23 21:00N 59°54' E 010°45'0 0.0
2019-Aug-23 20:28N 59°54' E 010°45'0 0.0
2019-Aug-23 19:58N 59°54' E 010°45'0 0.0
2019-Aug-23 19:28N 59°54' E 010°45'0 0.0
2019-Aug-23 18:59N 59°54' E 010°45'0 0.0
2019-Aug-23 18:29N 59°54' E 010°45'0 0.0
2019-Aug-23 17:59N 59°54' E 010°45'0 0.0
2019-Aug-23 17:30N 59°54' E 010°45'0 0.0
2019-Aug-23 17:00N 59°54' E 010°45'0 0.0
2019-Aug-23 16:30N 59°54' E 010°45'0 0.0
2019-Aug-23 15:58N 59°54' E 010°45'0 0.0
2019-Aug-23 15:28N 59°54' E 010°45'0 0.0
2019-Aug-23 14:58N 59°54' E 010°45'0 0.0
2019-Aug-23 14:29N 59°54' E 010°45'0 0.0
2019-Aug-23 13:59N 59°54' E 010°45'0 0.0
2019-Aug-23 13:29N 59°54' E 010°45'0 0.0
2019-Aug-23 13:00N 59°54' E 010°45'0 0.0
2019-Aug-23 12:30N 59°54' E 010°45'0 0.0
2019-Aug-23 12:00N 59°54' E 010°45'0 0.0
2019-Aug-23 11:28N 59°54' E 010°45'0 0.0
2019-Aug-23 10:58N 59°54' E 010°45'0 0.0
2019-Aug-23 10:28N 59°54' E 010°45'0 0.0
2019-Aug-23 09:59N 59°54' E 010°45'0 0.0
2019-Aug-23 09:29N 59°54' E 010°45'0 0.0
2019-Aug-23 08:59N 59°54' E 010°45'0 0.0
2019-Aug-23 08:30N 59°54' E 010°45'0 0.0
2019-Aug-23 08:00N 59°54' E 010°45'0 0.0
2019-Aug-23 07:30N 59°54' E 010°45'0 0.0
2019-Aug-23 07:00N 59°54' E 010°45'2 4.6
2019-Aug-23 06:30N 59°53' E 010°41'1 2.6
2019-Aug-23 06:00N 59°53' E 010°39'1 2.5
2019-Aug-23 05:30N 59°51' E 010°38'1 1.9
2019-Aug-23 05:01N 59°51' E 010°38'1 1.9
2019-Aug-23 04:30N 59°50' E 010°37'1 1.9
2019-Aug-23 04:00N 59°49' E 010°35'1 2.3
2019-Aug-23 03:30N 59°48' E 010°36'1 2.1
2019-Aug-23 03:00N 59°47' E 010°34'1 2.2
2019-Aug-23 02:30N 59°46' E 010°34'1 1.6
2019-Aug-23 01:59N 59°45' E 010°35'1 2.8
2019-Aug-23 01:31N 59°44' E 010°35'1 2.5
2019-Aug-23 01:00N 59°43' E 010°35'1 3.0
2019-Aug-23 00:30N 59°41' E 010°36'1 2.8
2019-Aug-23 00:00N 59°40' E 010°37'2 3.2
2019-Aug-22 23:31N 59°38' E 010°38'1 2.8
2019-Aug-22 23:00N 59°37' E 010°38'2 3.5
2019-Aug-22 22:31N 59°35' E 010°38'2 3.7
2019-Aug-22 22:01N 59°33' E 010°38'2 3.9
2019-Aug-22 21:30N 59°32' E 010°36'2 3.9
2019-Aug-22 21:01N 59°30' E 010°34'2 3.5
2019-Aug-22 20:30N 59°29' E 010°32'2 3.4
2019-Aug-22 20:00N 59°27' E 010°30'1 3.0
2019-Aug-22 19:31N 59°26' E 010°28'0 0.1
2019-Aug-22 18:59N 59°26' E 010°28'0 0.0
2019-Aug-22 18:30N 59°26' E 010°28'1 2.7
2019-Aug-22 18:00N 59°27' E 010°31'4 7.5
2019-Aug-22 17:31N 59°24' E 010°35'4 7.4
2019-Aug-22 17:00N 59°20' E 010°37'4 8.4
2019-Aug-22 16:30N 59°16' E 010°39'4 8.9
2019-Aug-22 16:01N 59°12' E 010°40'5 9.0
2019-Aug-22 15:31N 59°07' E 010°40'4 8.9
2019-Aug-22 15:00N 59°03' E 010°39'4 8.4
2019-Aug-22 14:30N 59°00' E 010°33'4 8.2
2019-Aug-22 14:00N 58°57' E 010°27'4 8.3
2019-Aug-22 13:30N 58°54' E 010°22'4 7.9
2019-Aug-22 13:00N 58°51' E 010°17'4 7.2
2019-Aug-22 12:30N 58°48' E 010°13'4 7.3
2019-Aug-22 12:00N 58°45' E 010°08'4 7.1
2019-Aug-22 11:30N 58°43' E 010°04'3 6.8
2019-Aug-22 11:00N 58°40' E 009°59'2 4.5
2019-Aug-22 10:29N 58°40' E 009°55'3 5.5
2019-Aug-22 10:00N 58°41' E 009°50'3 5.3
2019-Aug-22 09:30N 58°42' E 009°46'2 4.8
2019-Aug-22 09:00N 58°44' E 009°42'2 4.5
2019-Aug-22 08:30N 58°45' E 009°39'2 4.8
2019-Aug-22 08:00N 58°47' E 009°35'2 3.9
2019-Aug-22 07:30N 58°48' E 009°32'2 4.1
2019-Aug-22 06:59N 58°49' E 009°35'3 5.3
2019-Aug-22 06:30N 58°51' E 009°39'3 5.4
2019-Aug-22 06:00N 58°52' E 009°44'3 5.7
2019-Aug-22 05:30N 58°52' E 009°49'3 5.6
2019-Aug-22 05:00N 58°53' E 009°54'3 6.6
2019-Aug-22 04:30N 58°54' E 010°00'3 6.6
2019-Aug-22 04:00N 58°55' E 010°07'3 6.2
2019-Aug-22 03:30N 58°56' E 010°12'3 5.9
2019-Aug-22 03:00N 58°57' E 010°18'3 5.1
2019-Aug-22 02:30N 58°57' E 010°23'2 4.4
2019-Aug-22 02:00N 58°58' E 010°27'2 4.0
2019-Aug-22 01:30N 58°59' E 010°30'2 3.2
2019-Aug-22 01:00N 58°60' E 010°33'2 3.2
2019-Aug-22 00:30N 59°01' E 010°34'2 3.6
2019-Aug-22 00:00N 59°03' E 010°36'2 3.4
2019-Aug-21 23:30N 59°04' E 010°37'2 3.9
2019-Aug-21 23:00N 59°06' E 010°38'2 4.2
2019-Aug-21 22:30N 59°08' E 010°39'2 4.9
2019-Aug-21 22:00N 59°11' E 010°38'3 5.0
2019-Aug-21 21:30N 59°13' E 010°37'3 5.5
2019-Aug-21 21:00N 59°16' E 010°36'3 5.7
2019-Aug-21 20:30N 59°19' E 010°35'2 5.0
2019-Aug-21 20:00N 59°21' E 010°34'3 5.3
2019-Aug-21 19:30N 59°24' E 010°33'3 5.3
2019-Aug-21 19:00N 59°26' E 010°33'3 5.1
2019-Aug-21 18:30N 59°29' E 010°33'3 5.1
2019-Aug-21 18:00N 59°31' E 010°35'2 4.8
2019-Aug-21 17:30N 59°33' E 010°37'2 4.4
2019-Aug-21 17:00N 59°36' E 010°38'2 4.7
2019-Aug-21 16:30N 59°38' E 010°37'2 4.6
2019-Aug-21 16:00N 59°40' E 010°37'2 4.4
2019-Aug-21 15:29N 59°42' E 010°35'2 4.8
2019-Aug-21 15:00N 59°44' E 010°33'2 5.0
2019-Aug-21 14:30N 59°47' E 010°33'3 5.1
2019-Aug-21 14:00N 59°49' E 010°34'3 5.8
2019-Aug-21 13:30N 59°52' E 010°37'3 5.8
2019-Aug-21 13:00N 59°54' E 010°42'2 3.7
2019-Aug-21 12:30N 59°54' E 010°45'0 0.0
2019-Aug-21 12:00N 59°54' E 010°45'0 0.0
2019-Aug-21 11:30N 59°54' E 010°45'0 0.0
2019-Aug-21 10:58N 59°54' E 010°45'0 0.0
2019-Aug-21 10:28N 59°54' E 010°45'0 0.0
2019-Aug-21 09:58N 59°54' E 010°45'0 0.0
2019-Aug-21 09:29N 59°54' E 010°45'0 0.0
2019-Aug-21 09:00N 59°54' E 010°45'0 0.0
2019-Aug-21 08:30N 59°54' E 010°45'0 0.0
2019-Aug-21 08:00N 59°54' E 010°45'0 0.0
2019-Aug-21 07:29N 59°54' E 010°45'0 0.0
2019-Aug-21 07:00N 59°54' E 010°45'0 0.0
2019-Aug-21 06:30N 59°54' E 010°45'0 0.0
2019-Aug-21 06:00N 59°54' E 010°45'0 0.0
2019-Aug-21 05:30N 59°54' E 010°45'0 0.0
2019-Aug-21 05:00N 59°54' E 010°45'0 0.0
2019-Aug-21 04:30N 59°54' E 010°45'0 0.0
2019-Aug-21 04:00N 59°54' E 010°45'0 0.0
2019-Aug-21 03:30N 59°54' E 010°45'0 0.0
2019-Aug-21 03:00N 59°54' E 010°45'0 0.0
2019-Aug-21 02:30N 59°54' E 010°45'0 0.0
2019-Aug-21 02:00N 59°54' E 010°45'0 0.0
2019-Aug-21 01:30N 59°54' E 010°45'0 0.0
2019-Aug-21 01:00N 59°54' E 010°45'0 0.0
2019-Aug-21 00:30N 59°54' E 010°45'0 0.0
2019-Aug-21 00:00N 59°54' E 010°45'0 0.0
2019-Aug-20 23:30N 59°54' E 010°45'0 0.0
2019-Aug-20 23:00N 59°54' E 010°45'0 0.0
2019-Aug-20 22:30N 59°54' E 010°45'0 0.0
2019-Aug-20 22:00N 59°54' E 010°45'0 0.0
2019-Aug-20 21:30N 59°54' E 010°45'0 0.0
2019-Aug-20 21:00N 59°54' E 010°45'0 0.0
2019-Aug-20 20:30N 59°54' E 010°45'0 0.0
2019-Aug-20 20:00N 59°54' E 010°45'0 0.0
2019-Aug-20 19:30N 59°54' E 010°45'0 0.0
2019-Aug-20 19:00N 59°54' E 010°45'0 0.0
2019-Aug-20 18:30N 59°54' E 010°45'0 0.0
2019-Aug-20 18:00N 59°54' E 010°45'0 0.0
2019-Aug-20 17:30N 59°54' E 010°45'0 0.0
2019-Aug-20 17:00N 59°54' E 010°45'0 0.0
2019-Aug-20 16:30N 59°54' E 010°45'0 0.0
2019-Aug-20 16:00N 59°54' E 010°45'0 0.0
2019-Aug-20 15:30N 59°54' E 010°45'0 0.0
2019-Aug-20 15:00N 59°54' E 010°45'0 0.0
2019-Aug-20 14:28N 59°54' E 010°45'0 0.0
2019-Aug-20 13:59N 59°54' E 010°45'0 0.0
2019-Aug-20 13:29N 59°54' E 010°45'0 0.0
2019-Aug-20 12:59N 59°54' E 010°45'0 0.0
2019-Aug-20 12:30N 59°54' E 010°45'0 0.0
2019-Aug-20 12:00N 59°54' E 010°45'0 0.0
2019-Aug-20 11:30N 59°54' E 010°45'0 0.0
2019-Aug-20 11:00N 59°54' E 010°45'0 0.0
2019-Aug-20 10:28N 59°54' E 010°45'0 0.0
2019-Aug-20 09:58N 59°54' E 010°45'0 0.0
2019-Aug-20 09:29N 59°54' E 010°45'0 0.0
2019-Aug-20 08:59N 59°54' E 010°45'0 0.0
2019-Aug-20 08:29N 59°54' E 010°45'0 0.0
2019-Aug-20 07:59N 59°54' E 010°45'0 0.0
2019-Aug-20 07:30N 59°54' E 010°45'0 0.0
2019-Aug-20 07:00N 59°54' E 010°45'0 0.0
2019-Aug-20 06:30N 59°54' E 010°45'0 0.0
2019-Aug-20 05:58N 59°54' E 010°45'0 0.0
2019-Aug-20 05:28N 59°54' E 010°45'0 0.0
2019-Aug-20 04:58N 59°54' E 010°45'0 0.0
2019-Aug-20 04:29N 59°54' E 010°45'0 0.0
2019-Aug-20 03:59N 59°54' E 010°45'0 0.0
2019-Aug-20 03:29N 59°54' E 010°45'0 0.0
2019-Aug-20 03:00N 59°54' E 010°45'0 0.0
2019-Aug-20 02:30N 59°54' E 010°45'0 0.0
2019-Aug-20 02:00N 59°54' E 010°45'0 0.0
2019-Aug-20 01:28N 59°54' E 010°45'0 0.0
2019-Aug-20 00:58N 59°54' E 010°45'0 0.0
2019-Aug-20 00:28N 59°54' E 010°45'0 0.0
2019-Aug-19 23:59N 59°54' E 010°45'0 0.0
2019-Aug-19 23:29N 59°54' E 010°45'0 0.0
2019-Aug-19 22:59N 59°54' E 010°45'0 0.0
2019-Aug-19 22:30N 59°54' E 010°45'0 0.0
2019-Aug-19 22:00N 59°54' E 010°45'0 0.0
2019-Aug-19 21:30N 59°54' E 010°45'0 0.0
2019-Aug-19 20:58N 59°54' E 010°45'0 0.0
2019-Aug-19 20:28N 59°54' E 010°45'0 0.0
2019-Aug-19 19:58N 59°54' E 010°45'0 0.0
2019-Aug-19 19:29N 59°54' E 010°45'0 0.0
2019-Aug-19 18:59N 59°54' E 010°45'0 0.0
2019-Aug-19 18:29N 59°54' E 010°45'0 0.0
2019-Aug-19 18:00N 59°54' E 010°45'0 0.0
2019-Aug-19 17:30N 59°54' E 010°45'0 0.0
2019-Aug-19 17:00N 59°54' E 010°45'0 0.2
2019-Aug-19 16:30N 59°54' E 010°45'2 4.6
2019-Aug-19 15:59N 59°53' E 010°41'2 4.8
2019-Aug-19 15:30N 59°51' E 010°42'1 1.2
2019-Aug-19 15:00N 59°51' E 010°42'1 2.6
2019-Aug-19 14:30N 59°53' E 010°40'1 2.8
2019-Aug-19 14:00N 59°52' E 010°38'2 4.0
2019-Aug-19 13:30N 59°50' E 010°36'2 4.4
2019-Aug-19 13:00N 59°48' E 010°35'3 5.2
2019-Aug-19 12:30N 59°45' E 010°35'3 5.1
2019-Aug-19 12:00N 59°43' E 010°35'3 5.9
2019-Aug-19 11:30N 59°40' E 010°37'3 6.8
2019-Aug-19 11:00N 59°37' E 010°38'3 6.7
2019-Aug-19 10:30N 59°33' E 010°38'3 6.4
2019-Aug-19 10:00N 59°30' E 010°36'3 6.0
2019-Aug-19 09:30N 59°27' E 010°34'3 5.1
2019-Aug-19 09:00N 59°25' E 010°34'3 5.6
2019-Aug-19 08:30N 59°22' E 010°36'3 6.1
2019-Aug-19 08:00N 59°19' E 010°37'4 7.2
2019-Aug-19 07:30N 59°16' E 010°37'4 8.9
2019-Aug-19 07:00N 59°11' E 010°39'4 7.9
2019-Aug-19 06:30N 59°07' E 010°40'4 8.0
2019-Aug-19 06:00N 59°03' E 010°42'4 8.2
2019-Aug-19 05:30N 58°59' E 010°42'4 7.4
2019-Aug-19 05:00N 58°55' E 010°43'4 7.1
2019-Aug-19 04:30N 58°52' E 010°43'4 7.2
2019-Aug-19 04:00N 58°48' E 010°44'3 6.8
2019-Aug-19 03:30N 58°45' E 010°44'4 6.9
2019-Aug-19 03:00N 58°41' E 010°45'4 7.2
2019-Aug-19 02:30N 58°38' E 010°46'3 6.8
2019-Aug-19 02:00N 58°35' E 010°48'3 6.6
2019-Aug-19 01:30N 58°31' E 010°49'3 6.4
2019-Aug-19 01:00N 58°28' E 010°50'3 6.7
2019-Aug-19 00:30N 58°25' E 010°51'3 6.4
2019-Aug-19 00:00N 58°22' E 010°51'3 6.3
2019-Aug-18 23:29N 58°19' E 010°52'3 5.6
2019-Aug-18 23:00N 58°16' E 010°52'3 5.1
2019-Aug-18 22:30N 58°13' E 010°51'2 4.0
2019-Aug-18 21:59N 58°11' E 010°50'2 4.3
2019-Aug-18 21:29N 58°09' E 010°50'2 3.8
2019-Aug-18 21:00N 58°07' E 010°49'2 3.4
2019-Aug-18 20:30N 58°06' E 010°49'2 3.3
2019-Aug-18 20:00N 58°04' E 010°48'2 3.5
2019-Aug-18 19:30N 58°02' E 010°47'2 3.6
2019-Aug-18 18:59N 58°01' E 010°47'2 3.2
2019-Aug-18 18:30N 57°59' E 010°47'1 2.8
2019-Aug-18 18:00N 57°58' E 010°48'2 3.5
2019-Aug-18 17:30N 57°56' E 010°49'2 4.4
2019-Aug-18 17:00N 57°54' E 010°49'2 4.4
2019-Aug-18 16:30N 57°52' E 010°49'2 4.9
2019-Aug-18 16:00N 57°49' E 010°48'3 5.1
2019-Aug-18 15:30N 57°47' E 010°47'1 2.9
2019-Aug-18 15:00N 57°45' E 010°46'3 5.9
2019-Aug-18 14:30N 57°43' E 010°42'4 7.1
2019-Aug-18 14:00N 57°43' E 010°36'0 0.4
2019-Aug-18 13:26N 57°43' E 010°35'0 0.0
2019-Aug-18 13:00N 57°43' E 010°35'0 0.0
2019-Aug-18 12:30N 57°43' E 010°35'0 0.0
2019-Aug-18 11:57N 57°43' E 010°35'0 0.0
2019-Aug-18 11:22N 57°43' E 010°35'0 0.0
2019-Aug-18 10:55N 57°43' E 010°35'0 0.0
2019-Aug-18 10:28N 57°43' E 010°35'0 0.0
2019-Aug-18 09:59N 57°43' E 010°35'0 0.0
2019-Aug-18 09:17N 57°43' E 010°35'0 0.0
2019-Aug-18 08:59N 57°43' E 010°35'0 0.0
2019-Aug-18 06:58N 57°43' E 010°35'0 0.0
2019-Aug-18 06:28N 57°43' E 010°35'0 0.0
2019-Aug-18 05:58N 57°43' E 010°35'0 0.0
2019-Aug-18 05:29N 57°43' E 010°35'0 0.0
2019-Aug-18 04:47N 57°43' E 010°35'0 0.0
2019-Aug-18 04:26N 57°43' E 010°35'0 0.0
2019-Aug-18 04:00N 57°43' E 010°35'0 0.0
2019-Aug-18 03:27N 57°43' E 010°35'0 0.0
2019-Aug-18 02:57N 57°43' E 010°35'0 0.0
2019-Aug-18 02:31N 57°43' E 010°35'0 0.0
2019-Aug-18 01:58N 57°43' E 010°35'0 0.0
2019-Aug-18 01:28N 57°43' E 010°35'0 0.0
2019-Aug-18 00:59N 57°43' E 010°35'0 0.0
2019-Aug-18 00:29N 57°43' E 010°35'0 0.0
2019-Aug-17 23:59N 57°43' E 010°35'0 0.0
2019-Aug-17 23:24N 57°43' E 010°35'0 0.0
2019-Aug-17 23:00N 57°43' E 010°35'0 0.0
2019-Aug-17 22:27N 57°43' E 010°35'0 0.0
2019-Aug-17 22:01N 57°43' E 010°35'0 0.0
2019-Aug-17 21:25N 57°43' E 010°35'0 0.0
2019-Aug-17 20:58N 57°43' E 010°35'0 0.0
2019-Aug-17 20:29N 57°43' E 010°35'0 0.0
2019-Aug-17 19:59N 57°43' E 010°35'0 0.0
2019-Aug-17 19:29N 57°43' E 010°35'0 0.0
2019-Aug-17 18:59N 57°43' E 010°35'0 0.0
2019-Aug-17 18:30N 57°43' E 010°35'0 0.0
2019-Aug-17 17:30N 57°43' E 010°35'0 0.0
2019-Aug-17 16:58N 57°43' E 010°35'0 0.0
2019-Aug-17 16:28N 57°43' E 010°35'0 0.0
2019-Aug-17 15:55N 57°43' E 010°35'0 0.0
2019-Aug-17 15:30N 57°43' E 010°35'1 1.5
2019-Aug-17 15:00N 57°43' E 010°37'0 0.9
2019-Aug-17 14:30N 57°43' E 010°37'1 1.3
2019-Aug-17 14:00N 57°43' E 010°39'2 3.2
2019-Aug-17 13:30N 57°43' E 010°41'2 4.6
2019-Aug-17 13:00N 57°44' E 010°45'2 3.1
2019-Aug-17 12:30N 57°45' E 010°47'2 3.1
2019-Aug-17 12:00N 57°46' E 010°50'2 3.3
2019-Aug-17 11:30N 57°47' E 010°52'2 3.3
2019-Aug-17 11:00N 57°48' E 010°55'2 3.6
2019-Aug-17 10:30N 57°48' E 010°58'2 4.0
2019-Aug-17 10:00N 57°49' E 011°02'2 4.0
2019-Aug-17 09:30N 57°50' E 011°05'2 3.2
2019-Aug-17 09:00N 57°51' E 011°07'2 3.7
2019-Aug-17 08:30N 57°52' E 011°04'2 4.8
2019-Aug-17 08:00N 57°53' E 011°00'2 4.7
2019-Aug-17 07:30N 57°54' E 010°56'2 4.7
2019-Aug-17 07:00N 57°55' E 010°52'2 4.8
2019-Aug-17 06:30N 57°56' E 010°48'2 5.0
2019-Aug-17 06:00N 57°57' E 010°44'3 5.6
2019-Aug-17 05:30N 57°58' E 010°39'3 6.5
2019-Aug-17 04:59N 57°59' E 010°33'4 7.5
2019-Aug-17 04:30N 57°60' E 010°26'4 7.9
2019-Aug-17 04:00N 58°01' E 010°19'4 7.9
2019-Aug-17 03:30N 58°02' E 010°12'4 7.5
2019-Aug-17 03:00N 58°03' E 010°05'4 7.3
2019-Aug-17 02:30N 58°04' E 009°58'4 7.0
2019-Aug-17 01:59N 58°05' E 009°52'3 6.8
2019-Aug-17 01:30N 58°06' E 009°46'3 6.7
2019-Aug-17 01:00N 58°07' E 009°40'3 6.6
2019-Aug-17 00:30N 58°09' E 009°35'4 6.9
2019-Aug-17 00:00N 58°11' E 009°29'3 6.7
2019-Aug-16 23:30N 58°13' E 009°24'4 7.0
2019-Aug-16 23:00N 58°14' E 009°18'4 7.3
2019-Aug-16 22:30N 58°16' E 009°12'4 7.6
2019-Aug-16 21:59N 58°18' E 009°06'4 7.4
2019-Aug-16 21:30N 58°20' E 009°00'4 7.7
2019-Aug-16 21:00N 58°22' E 008°54'4 7.9
2019-Aug-16 20:30N 58°25' E 008°48'2 4.1
2019-Aug-16 20:00N 58°27' E 008°47'1 1.8
2019-Aug-16 19:30N 58°27' E 008°46'0 0.0
2019-Aug-16 18:58N 58°27' E 008°46'0 0.0
2019-Aug-16 18:28N 58°27' E 008°46'0 0.0
2019-Aug-16 17:59N 58°27' E 008°46'0 0.0
2019-Aug-16 17:29N 58°27' E 008°46'0 0.0
2019-Aug-16 16:59N 58°27' E 008°46'0 0.0
2019-Aug-16 16:30N 58°27' E 008°46'0 0.0
2019-Aug-16 16:00N 58°27' E 008°46'0 0.0
2019-Aug-16 15:30N 58°27' E 008°46'0 0.0
2019-Aug-16 14:58N 58°27' E 008°46'0 0.0
2019-Aug-16 14:28N 58°27' E 008°46'0 0.0
2019-Aug-16 13:59N 58°27' E 008°46'0 0.0
2019-Aug-16 13:29N 58°27' E 008°46'0 0.0
2019-Aug-16 12:59N 58°27' E 008°46'0 0.0
2019-Aug-16 12:30N 58°27' E 008°46'0 0.0
2019-Aug-16 12:00N 58°27' E 008°46'0 0.0
2019-Aug-16 11:30N 58°27' E 008°46'0 0.0
2019-Aug-16 10:58N 58°27' E 008°46'0 0.0
2019-Aug-16 10:28N 58°27' E 008°46'0 0.0
2019-Aug-16 09:58N 58°27' E 008°46'0 0.0
2019-Aug-16 09:29N 58°27' E 008°46'0 0.0
2019-Aug-16 08:59N 58°27' E 008°46'0 0.0
2019-Aug-16 08:29N 58°27' E 008°46'0 0.0
2019-Aug-16 08:00N 58°27' E 008°46'0 0.0
2019-Aug-16 07:30N 58°27' E 008°46'0 0.0
2019-Aug-16 07:00N 58°27' E 008°46'0 0.0
2019-Aug-16 06:28N 58°27' E 008°46'0 0.0
2019-Aug-16 05:58N 58°27' E 008°46'0 0.0
2019-Aug-16 05:28N 58°27' E 008°46'0 0.0
2019-Aug-16 04:59N 58°27' E 008°46'0 0.0
2019-Aug-16 04:29N 58°27' E 008°46'0 0.0
2019-Aug-16 03:59N 58°27' E 008°46'0 0.0
2019-Aug-16 03:30N 58°27' E 008°46'0 0.0
2019-Aug-16 03:00N 58°27' E 008°46'0 0.0
2019-Aug-16 02:30N 58°27' E 008°46'0 0.0
2019-Aug-16 01:58N 58°27' E 008°46'0 0.0
2019-Aug-16 01:28N 58°27' E 008°46'0 0.0
2019-Aug-16 00:58N 58°27' E 008°46'0 0.0
2019-Aug-16 00:29N 58°27' E 008°46'0 0.0
2019-Aug-15 23:59N 58°27' E 008°46'0 0.0
2019-Aug-15 23:29N 58°27' E 008°46'0 0.0
2019-Aug-15 23:00N 58°27' E 008°46'0 0.0
2019-Aug-15 22:30N 58°27' E 008°46'0 0.0
2019-Aug-15 22:00N 58°27' E 008°46'0 0.0
2019-Aug-15 21:28N 58°27' E 008°46'0 0.0
2019-Aug-15 20:58N 58°27' E 008°46'0 0.0
2019-Aug-15 20:28N 58°27' E 008°46'0 0.0
2019-Aug-15 19:59N 58°27' E 008°46'0 0.0
2019-Aug-15 19:29N 58°27' E 008°46'0 0.0
2019-Aug-15 18:59N 58°27' E 008°46'0 0.0
2019-Aug-15 18:30N 58°27' E 008°46'0 0.0
2019-Aug-15 18:00N 58°27' E 008°46'0 0.0
2019-Aug-15 17:30N 58°27' E 008°46'0 0.0
2019-Aug-15 16:58N 58°27' E 008°46'0 0.0
2019-Aug-15 16:28N 58°27' E 008°46'0 0.0
2019-Aug-15 15:58N 58°27' E 008°46'0 0.0
2019-Aug-15 15:29N 58°27' E 008°46'0 0.0
2019-Aug-15 14:59N 58°27' E 008°46'0 0.0
2019-Aug-15 14:29N 58°27' E 008°46'0 0.0
2019-Aug-15 14:00N 58°27' E 008°46'0 0.0
2019-Aug-15 13:30N 58°27' E 008°46'0 0.0
2019-Aug-15 13:00N 58°27' E 008°46'0 0.0
2019-Aug-15 12:28N 58°27' E 008°46'0 0.0
2019-Aug-15 11:58N 58°27' E 008°46'0 0.0
2019-Aug-15 11:28N 58°27' E 008°46'0 0.0
2019-Aug-15 10:59N 58°27' E 008°46'0 0.0
2019-Aug-15 10:29N 58°27' E 008°46'0 0.0
2019-Aug-15 09:59N 58°27' E 008°46'0 0.0
2019-Aug-15 09:30N 58°27' E 008°46'0 0.0
2019-Aug-15 08:57N 58°27' E 008°46'0 0.0
2019-Aug-15 08:30N 58°27' E 008°46'0 0.0
2019-Aug-15 07:58N 58°27' E 008°46'0 0.0
2019-Aug-15 07:28N 58°27' E 008°46'0 0.0
2019-Aug-15 06:58N 58°27' E 008°46'0 0.0
2019-Aug-15 06:29N 58°27' E 008°46'0 0.0
2019-Aug-15 05:59N 58°27' E 008°46'0 0.0
2019-Aug-15 05:29N 58°27' E 008°46'0 0.0
2019-Aug-15 05:00N 58°27' E 008°46'0 0.0
2019-Aug-15 04:30N 58°27' E 008°46'0 0.0
2019-Aug-15 04:00N 58°27' E 008°46'0 0.0
2019-Aug-15 03:28N 58°27' E 008°46'0 0.0
2019-Aug-15 02:58N 58°27' E 008°46'0 0.0
2019-Aug-15 02:28N 58°27' E 008°46'0 0.0
2019-Aug-15 01:59N 58°27' E 008°46'0 0.0
2019-Aug-15 01:29N 58°27' E 008°46'0 0.0
2019-Aug-15 00:59N 58°27' E 008°46'0 0.0
2019-Aug-15 00:30N 58°27' E 008°46'0 0.0
2019-Aug-15 00:00N 58°27' E 008°46'0 0.0
2019-Aug-14 23:30N 58°27' E 008°46'0 0.0
2019-Aug-14 22:58N 58°27' E 008°46'0 0.0
2019-Aug-14 22:28N 58°27' E 008°46'0 0.0
2019-Aug-14 21:58N 58°27' E 008°46'0 0.0
2019-Aug-14 21:29N 58°27' E 008°46'0 0.0
2019-Aug-14 20:59N 58°27' E 008°46'0 0.0
2019-Aug-14 20:29N 58°27' E 008°46'0 0.0
2019-Aug-14 20:00N 58°27' E 008°46'0 0.0
2019-Aug-14 19:30N 58°27' E 008°46'0 0.0
2019-Aug-14 19:00N 58°27' E 008°46'0 0.0
2019-Aug-14 18:28N 58°27' E 008°46'0 0.0
2019-Aug-14 17:58N 58°27' E 008°46'0 0.0
2019-Aug-14 17:28N 58°27' E 008°46'0 0.0
2019-Aug-14 16:59N 58°27' E 008°46'0 0.0
2019-Aug-14 16:29N 58°27' E 008°46'0 0.0
2019-Aug-14 16:00N 58°27' E 008°46'0 0.0
2019-Aug-14 15:30N 58°27' E 008°46'0 0.0
2019-Aug-14 15:00N 58°27' E 008°46'0 0.0
2019-Aug-14 14:30N 58°27' E 008°46'0 0.0
2019-Aug-14 13:58N 58°27' E 008°46'0 0.0
2019-Aug-14 13:28N 58°27' E 008°46'0 0.0
2019-Aug-14 12:59N 58°27' E 008°46'0 0.0
2019-Aug-14 12:29N 58°27' E 008°46'0 0.0
2019-Aug-14 11:59N 58°27' E 008°46'0 0.0
2019-Aug-14 11:30N 58°27' E 008°46'0 0.0
2019-Aug-14 11:00N 58°27' E 008°46'0 0.0
2019-Aug-14 10:30N 58°27' E 008°46'0 0.0
2019-Aug-14 09:58N 58°27' E 008°46'0 0.0
2019-Aug-14 09:28N 58°27' E 008°46'0 0.0
2019-Aug-14 08:58N 58°27' E 008°46'0 0.0
2019-Aug-14 08:29N 58°27' E 008°46'0 0.0
2019-Aug-14 07:59N 58°27' E 008°46'0 0.0
2019-Aug-14 07:29N 58°27' E 008°46'  

Dump ship's entire track history